sensor_id;sensor_type;location;lat;lon;timestamp;temperature;humidity
19588;DHT22;9940;47.252;8.696;2023-04-06T00:00:00;6.80;58.50
19588;DHT22;9940;47.252;8.696;2023-04-06T00:02:26;6.70;58.50
19588;DHT22;9940;47.252;8.696;2023-04-06T00:04:54;6.70;58.50
19588;DHT22;9940;47.252;8.696;2023-04-06T00:07:24;6.60;58.60
19588;DHT22;9940;47.252;8.696;2023-04-06T00:09:52;6.60;58.60
19588;DHT22;9940;47.252;8.696;2023-04-06T00:12:20;6.50;58.70
19588;DHT22;9940;47.252;8.696;2023-04-06T00:14:46;6.50;58.80
19588;DHT22;9940;47.252;8.696;2023-04-06T00:17:11;6.50;58.80
19588;DHT22;9940;47.252;8.696;2023-04-06T00:19:40;6.50;58.90
19588;DHT22;9940;47.252;8.696;2023-04-06T00:22:08;6.50;59.00
19588;DHT22;9940;47.252;8.696;2023-04-06T00:24:33;6.40;59.00
19588;DHT22;9940;47.252;8.696;2023-04-06T00:26:59;6.40;59.10
19588;DHT22;9940;47.252;8.696;2023-04-06T00:29:25;6.40;59.10
19588;DHT22;9940;47.252;8.696;2023-04-06T00:31:53;6.40;59.10
19588;DHT22;9940;47.252;8.696;2023-04-06T00:34:18;6.40;59.10
19588;DHT22;9940;47.252;8.696;2023-04-06T00:36:46;6.40;59.10
19588;DHT22;9940;47.252;8.696;2023-04-06T00:39:19;6.40;59.20
19588;DHT22;9940;47.252;8.696;2023-04-06T00:41:46;6.40;59.20
19588;DHT22;9940;47.252;8.696;2023-04-06T00:44:14;6.40;59.20
19588;DHT22;9940;47.252;8.696;2023-04-06T00:46:40;6.40;59.30
19588;DHT22;9940;47.252;8.696;2023-04-06T00:49:05;6.40;59.40
19588;DHT22;9940;47.252;8.696;2023-04-06T00:51:31;6.30;59.30
19588;DHT22;9940;47.252;8.696;2023-04-06T00:54:01;6.30;59.50
19588;DHT22;9940;47.252;8.696;2023-04-06T00:56:27;6.30;59.50
19588;DHT22;9940;47.252;8.696;2023-04-06T00:58:55;6.30;59.60
19588;DHT22;9940;47.252;8.696;2023-04-06T01:01:26;6.20;59.60
19588;DHT22;9940;47.252;8.696;2023-04-06T01:03:54;6.20;59.60
19588;DHT22;9940;47.252;8.696;2023-04-06T01:06:20;6.20;59.70
19588;DHT22;9940;47.252;8.696;2023-04-06T01:08:46;6.20;59.70
19588;DHT22;9940;47.252;8.696;2023-04-06T01:11:14;6.20;59.70
19588;DHT22;9940;47.252;8.696;2023-04-06T01:13:42;6.20;59.80
19588;DHT22;9940;47.252;8.696;2023-04-06T01:16:10;6.20;59.80
19588;DHT22;9940;47.252;8.696;2023-04-06T01:18:37;6.10;59.80
19588;DHT22;9940;47.252;8.696;2023-04-06T01:21:08;6.10;60.00
19588;DHT22;9940;47.252;8.696;2023-04-06T01:23:42;6.00;60.00
19588;DHT22;9940;47.252;8.696;2023-04-06T01:26:08;6.00;60.00
19588;DHT22;9940;47.252;8.696;2023-04-06T01:28:34;6.00;60.10
19588;DHT22;9940;47.252;8.696;2023-04-06T01:30:59;5.90;60.10
19588;DHT22;9940;47.252;8.696;2023-04-06T01:33:25;5.90;60.20
19588;DHT22;9940;47.252;8.696;2023-04-06T01:35:51;5.90;60.20
19588;DHT22;9940;47.252;8.696;2023-04-06T01:38:16;5.90;60.20
19588;DHT22;9940;47.252;8.696;2023-04-06T01:40:42;5.90;60.20
19588;DHT22;9940;47.252;8.696;2023-04-06T01:43:10;5.90;60.30
19588;DHT22;9940;47.252;8.696;2023-04-06T01:45:36;5.90;60.30
19588;DHT22;9940;47.252;8.696;2023-04-06T01:48:01;5.80;60.30
19588;DHT22;9940;47.252;8.696;2023-04-06T01:50:29;5.80;60.40
19588;DHT22;9940;47.252;8.696;2023-04-06T01:52:57;5.80;60.50
19588;DHT22;9940;47.252;8.696;2023-04-06T01:55:22;5.80;60.50
19588;DHT22;9940;47.252;8.696;2023-04-06T01:57:51;5.80;60.50
19588;DHT22;9940;47.252;8.696;2023-04-06T02:00:16;5.80;60.50
19588;DHT22;9940;47.252;8.696;2023-04-06T02:02:47;5.70;60.50
19588;DHT22;9940;47.252;8.696;2023-04-06T02:05:12;5.70;60.60
19588;DHT22;9940;47.252;8.696;2023-04-06T02:07:38;5.70;61.40
19588;DHT22;9940;47.252;8.696;2023-04-06T02:10:14;5.80;60.80
19588;DHT22;9940;47.252;8.696;2023-04-06T02:12:40;5.70;60.60
19588;DHT22;9940;47.252;8.696;2023-04-06T02:15:06;5.70;60.70
19588;DHT22;9940;47.252;8.696;2023-04-06T02:17:32;5.70;60.70
19588;DHT22;9940;47.252;8.696;2023-04-06T02:19:57;5.70;60.80
19588;DHT22;9940;47.252;8.696;2023-04-06T02:22:23;5.60;60.80
19588;DHT22;9940;47.252;8.696;2023-04-06T02:24:49;5.60;60.80
19588;DHT22;9940;47.252;8.696;2023-04-06T02:27:17;5.60;60.80
19588;DHT22;9940;47.252;8.696;2023-04-06T02:29:48;5.60;60.80
19588;DHT22;9940;47.252;8.696;2023-04-06T02:32:13;5.50;60.90
19588;DHT22;9940;47.252;8.696;2023-04-06T02:34:39;5.50;61.00
19588;DHT22;9940;47.252;8.696;2023-04-06T02:37:05;5.50;61.10
19588;DHT22;9940;47.252;8.696;2023-04-06T02:39:31;5.50;61.10
19588;DHT22;9940;47.252;8.696;2023-04-06T02:41:58;5.50;61.10
19588;DHT22;9940;47.252;8.696;2023-04-06T02:44:25;5.50;61.00
19588;DHT22;9940;47.252;8.696;2023-04-06T02:46:53;5.50;61.10
19588;DHT22;9940;47.252;8.696;2023-04-06T02:49:18;5.40;61.00
19588;DHT22;9940;47.252;8.696;2023-04-06T02:51:44;5.40;61.00
19588;DHT22;9940;47.252;8.696;2023-04-06T02:54:12;5.40;61.00
19588;DHT22;9940;47.252;8.696;2023-04-06T02:56:38;5.40;61.10
19588;DHT22;9940;47.252;8.696;2023-04-06T02:59:04;5.40;61.10
19588;DHT22;9940;47.252;8.696;2023-04-06T03:01:29;5.40;61.10
19588;DHT22;9940;47.252;8.696;2023-04-06T03:03:58;5.40;61.20
19588;DHT22;9940;47.252;8.696;2023-04-06T03:06:26;5.40;61.20
19588;DHT22;9940;47.252;8.696;2023-04-06T03:08:54;5.40;61.20
19588;DHT22;9940;47.252;8.696;2023-04-06T03:11:22;5.30;61.20
19588;DHT22;9940;47.252;8.696;2023-04-06T03:13:47;5.30;61.30
19588;DHT22;9940;47.252;8.696;2023-04-06T03:16:15;5.30;61.40
19588;DHT22;9940;47.252;8.696;2023-04-06T03:18:43;5.20;61.30
19588;DHT22;9940;47.252;8.696;2023-04-06T03:21:16;5.30;61.50
19588;DHT22;9940;47.252;8.696;2023-04-06T03:23:42;5.30;61.40
19588;DHT22;9940;47.252;8.696;2023-04-06T03:26:08;5.20;61.40
19588;DHT22;9940;47.252;8.696;2023-04-06T03:28:34;5.20;61.50
19588;DHT22;9940;47.252;8.696;2023-04-06T03:31:01;5.20;61.60
19588;DHT22;9940;47.252;8.696;2023-04-06T03:33:27;5.10;61.70
19588;DHT22;9940;47.252;8.696;2023-04-06T03:35:55;5.10;61.80
19588;DHT22;9940;47.252;8.696;2023-04-06T03:38:23;5.10;61.90
19588;DHT22;9940;47.252;8.696;2023-04-06T03:40:48;5.00;61.90
19588;DHT22;9940;47.252;8.696;2023-04-06T03:43:16;5.00;61.90
19588;DHT22;9940;47.252;8.696;2023-04-06T03:45:42;5.00;62.00
19588;DHT22;9940;47.252;8.696;2023-04-06T03:48:07;5.00;62.00
19588;DHT22;9940;47.252;8.696;2023-04-06T03:50:33;4.90;61.90
19588;DHT22;9940;47.252;8.696;2023-04-06T03:53:01;5.00;61.90
19588;DHT22;9940;47.252;8.696;2023-04-06T03:55:29;4.90;61.90
19588;DHT22;9940;47.252;8.696;2023-04-06T03:57:55;4.90;61.90
19588;DHT22;9940;47.252;8.696;2023-04-06T04:00:20;4.90;62.00
19588;DHT22;9940;47.252;8.696;2023-04-06T04:02:46;4.90;61.90
19588;DHT22;9940;47.252;8.696;2023-04-06T04:05:12;4.90;61.90
19588;DHT22;9940;47.252;8.696;2023-04-06T04:07:37;4.90;61.90
19588;DHT22;9940;47.252;8.696;2023-04-06T04:10:03;4.90;62.00
19588;DHT22;9940;47.252;8.696;2023-04-06T04:12:32;4.90;62.00
19588;DHT22;9940;47.252;8.696;2023-04-06T04:14:58;4.90;62.00
19588;DHT22;9940;47.252;8.696;2023-04-06T04:17:24;4.80;62.10
19588;DHT22;9940;47.252;8.696;2023-04-06T04:19:53;4.80;62.30
19588;DHT22;9940;47.252;8.696;2023-04-06T04:22:18;4.70;62.30
19588;DHT22;9940;47.252;8.696;2023-04-06T04:24:44;4.70;62.40
19588;DHT22;9940;47.252;8.696;2023-04-06T04:27:09;4.70;62.50
19588;DHT22;9940;47.252;8.696;2023-04-06T04:29:37;4.70;62.50
19588;DHT22;9940;47.252;8.696;2023-04-06T04:32:03;4.70;62.50
19588;DHT22;9940;47.252;8.696;2023-04-06T04:34:29;4.70;62.50
19588;DHT22;9940;47.252;8.696;2023-04-06T04:36:57;4.70;62.50
19588;DHT22;9940;47.252;8.696;2023-04-06T04:39:25;4.70;62.60
19588;DHT22;9940;47.252;8.696;2023-04-06T04:41:53;4.60;62.60
19588;DHT22;9940;47.252;8.696;2023-04-06T04:44:19;4.70;62.70
19588;DHT22;9940;47.252;8.696;2023-04-06T04:46:45;4.70;62.80
19588;DHT22;9940;47.252;8.696;2023-04-06T04:49:10;4.70;62.80
19588;DHT22;9940;47.252;8.696;2023-04-06T04:51:36;4.70;62.90
19588;DHT22;9940;47.252;8.696;2023-04-06T04:54:02;4.60;62.90
19588;DHT22;9940;47.252;8.696;2023-04-06T04:56:27;4.60;62.90
19588;DHT22;9940;47.252;8.696;2023-04-06T04:58:54;4.60;63.00
19588;DHT22;9940;47.252;8.696;2023-04-06T05:01:19;4.60;63.00
19588;DHT22;9940;47.252;8.696;2023-04-06T05:03:46;4.60;63.10
19588;DHT22;9940;47.252;8.696;2023-04-06T05:06:12;4.60;63.20
19588;DHT22;9940;47.252;8.696;2023-04-06T05:08:37;4.60;63.30
19588;DHT22;9940;47.252;8.696;2023-04-06T05:11:05;4.60;63.30
19588;DHT22;9940;47.252;8.696;2023-04-06T05:13:31;4.60;63.30
19588;DHT22;9940;47.252;8.696;2023-04-06T05:15:57;4.60;63.30
19588;DHT22;9940;47.252;8.696;2023-04-06T05:18:25;4.50;63.40
19588;DHT22;9940;47.252;8.696;2023-04-06T05:20:53;4.50;63.50
19588;DHT22;9940;47.252;8.696;2023-04-06T05:23:21;4.60;63.60
19588;DHT22;9940;47.252;8.696;2023-04-06T05:25:47;4.60;63.60
19588;DHT22;9940;47.252;8.696;2023-04-06T05:28:12;4.60;63.60
19588;DHT22;9940;47.252;8.696;2023-04-06T05:30:42;4.60;63.60
19588;DHT22;9940;47.252;8.696;2023-04-06T05:33:09;4.60;63.60
19588;DHT22;9940;47.252;8.696;2023-04-06T05:35:34;4.60;63.60
19588;DHT22;9940;47.252;8.696;2023-04-06T05:38:00;4.60;63.60
19588;DHT22;9940;47.252;8.696;2023-04-06T05:40:26;4.60;63.60
19588;DHT22;9940;47.252;8.696;2023-04-06T05:42:52;4.60;63.60
19588;DHT22;9940;47.252;8.696;2023-04-06T05:45:17;4.60;63.60
19588;DHT22;9940;47.252;8.696;2023-04-06T05:47:46;4.70;63.70
19588;DHT22;9940;47.252;8.696;2023-04-06T05:50:15;4.70;63.70
19588;DHT22;9940;47.252;8.696;2023-04-06T05:52:47;4.70;63.60
19588;DHT22;9940;47.252;8.696;2023-04-06T05:55:13;4.80;63.70
19588;DHT22;9940;47.252;8.696;2023-04-06T05:57:41;4.80;63.60
19588;DHT22;9940;47.252;8.696;2023-04-06T06:00:10;4.90;63.60
19588;DHT22;9940;47.252;8.696;2023-04-06T06:02:36;4.90;63.40
19588;DHT22;9940;47.252;8.696;2023-04-06T06:05:02;4.90;63.30
19588;DHT22;9940;47.252;8.696;2023-04-06T06:07:30;5.00;63.10
19588;DHT22;9940;47.252;8.696;2023-04-06T06:09:58;5.00;63.00
19588;DHT22;9940;47.252;8.696;2023-04-06T06:12:27;5.10;63.00
19588;DHT22;9940;47.252;8.696;2023-04-06T06:14:52;5.10;62.90
19588;DHT22;9940;47.252;8.696;2023-04-06T06:17:18;5.20;62.90
19588;DHT22;9940;47.252;8.696;2023-04-06T06:19:44;5.20;62.90
19588;DHT22;9940;47.252;8.696;2023-04-06T06:22:12;5.20;62.90
19588;DHT22;9940;47.252;8.696;2023-04-06T06:24:37;5.20;62.90
19588;DHT22;9940;47.252;8.696;2023-04-06T06:27:03;5.30;63.10
19588;DHT22;9940;47.252;8.696;2023-04-06T06:29:28;5.30;63.10
19588;DHT22;9940;47.252;8.696;2023-04-06T06:31:54;5.30;63.20
19588;DHT22;9940;47.252;8.696;2023-04-06T06:34:20;5.40;63.20
19588;DHT22;9940;47.252;8.696;2023-04-06T06:36:45;5.40;63.10
19588;DHT22;9940;47.252;8.696;2023-04-06T06:39:11;5.40;62.90
19588;DHT22;9940;47.252;8.696;2023-04-06T06:41:37;5.50;62.90
19588;DHT22;9940;47.252;8.696;2023-04-06T06:44:02;5.50;62.70
19588;DHT22;9940;47.252;8.696;2023-04-06T06:46:28;5.50;62.70
19588;DHT22;9940;47.252;8.696;2023-04-06T06:48:54;5.60;62.60
19588;DHT22;9940;47.252;8.696;2023-04-06T06:51:21;5.60;62.50
19588;DHT22;9940;47.252;8.696;2023-04-06T06:53:50;5.60;62.30
19588;DHT22;9940;47.252;8.696;2023-04-06T06:56:15;5.60;62.20
19588;DHT22;9940;47.252;8.696;2023-04-06T06:58:45;5.70;62.10
19588;DHT22;9940;47.252;8.696;2023-04-06T07:01:14;5.70;62.00
19588;DHT22;9940;47.252;8.696;2023-04-06T07:03:39;5.70;61.90
19588;DHT22;9940;47.252;8.696;2023-04-06T07:06:07;5.70;61.90
19588;DHT22;9940;47.252;8.696;2023-04-06T07:08:36;5.70;61.80
19588;DHT22;9940;47.252;8.696;2023-04-06T07:11:01;5.70;61.90
19588;DHT22;9940;47.252;8.696;2023-04-06T07:13:29;5.70;61.80
19588;DHT22;9940;47.252;8.696;2023-04-06T07:15:55;5.70;61.80
19588;DHT22;9940;47.252;8.696;2023-04-06T07:18:22;5.70;61.80
19588;DHT22;9940;47.252;8.696;2023-04-06T07:20:48;5.80;62.00
19588;DHT22;9940;47.252;8.696;2023-04-06T07:23:16;5.80;62.00
19588;DHT22;9940;47.252;8.696;2023-04-06T07:25:44;5.80;62.10
19588;DHT22;9940;47.252;8.696;2023-04-06T07:28:10;5.80;62.00
19588;DHT22;9940;47.252;8.696;2023-04-06T07:30:37;5.90;62.00
19588;DHT22;9940;47.252;8.696;2023-04-06T07:33:02;5.90;62.00
19588;DHT22;9940;47.252;8.696;2023-04-06T07:35:28;5.90;61.90
19588;DHT22;9940;47.252;8.696;2023-04-06T07:37:55;6.00;62.00
19588;DHT22;9940;47.252;8.696;2023-04-06T07:40:21;6.00;62.00
19588;DHT22;9940;47.252;8.696;2023-04-06T07:42:47;6.00;61.90
19588;DHT22;9940;47.252;8.696;2023-04-06T07:45:17;6.10;61.90
19588;DHT22;9940;47.252;8.696;2023-04-06T07:47:43;6.10;61.80
19588;DHT22;9940;47.252;8.696;2023-04-06T07:50:12;6.10;61.80
19588;DHT22;9940;47.252;8.696;2023-04-06T07:52:38;6.10;61.70
19588;DHT22;9940;47.252;8.696;2023-04-06T07:55:04;6.20;61.90
19588;DHT22;9940;47.252;8.696;2023-04-06T07:57:30;6.20;62.00
19588;DHT22;9940;47.252;8.696;2023-04-06T07:59:56;6.20;62.10
19588;DHT22;9940;47.252;8.696;2023-04-06T08:02:21;6.20;62.00
19588;DHT22;9940;47.252;8.696;2023-04-06T08:04:50;6.30;62.10
19588;DHT22;9940;47.252;8.696;2023-04-06T08:07:17;6.30;62.10
19588;DHT22;9940;47.252;8.696;2023-04-06T08:09:43;6.40;62.10
19588;DHT22;9940;47.252;8.696;2023-04-06T08:12:09;6.40;62.20
19588;DHT22;9940;47.252;8.696;2023-04-06T08:14:34;6.40;62.20
19588;DHT22;9940;47.252;8.696;2023-04-06T08:17:02;6.50;62.40
19588;DHT22;9940;47.252;8.696;2023-04-06T08:19:28;6.50;62.40
19588;DHT22;9940;47.252;8.696;2023-04-06T08:21:54;6.50;62.40
19588;DHT22;9940;47.252;8.696;2023-04-06T08:24:20;6.40;62.40
19588;DHT22;9940;47.252;8.696;2023-04-06T08:26:45;6.40;62.50
19588;DHT22;9940;47.252;8.696;2023-04-06T08:29:11;6.50;62.70
19588;DHT22;9940;47.252;8.696;2023-04-06T08:31:37;6.50;62.90
19588;DHT22;9940;47.252;8.696;2023-04-06T08:34:03;6.50;63.10
19588;DHT22;9940;47.252;8.696;2023-04-06T08:36:32;6.60;63.30
19588;DHT22;9940;47.252;8.696;2023-04-06T08:39:01;6.60;63.40
19588;DHT22;9940;47.252;8.696;2023-04-06T08:41:27;6.60;63.50
19588;DHT22;9940;47.252;8.696;2023-04-06T08:44:00;6.60;63.60
19588;DHT22;9940;47.252;8.696;2023-04-06T08:46:31;6.70;63.80
19588;DHT22;9940;47.252;8.696;2023-04-06T08:48:58;6.70;64.00
19588;DHT22;9940;47.252;8.696;2023-04-06T08:51:25;6.80;64.00
19588;DHT22;9940;47.252;8.696;2023-04-06T08:53:53;6.80;63.80
19588;DHT22;9940;47.252;8.696;2023-04-06T08:56:23;6.90;64.00
19588;DHT22;9940;47.252;8.696;2023-04-06T08:58:53;6.90;64.00
19588;DHT22;9940;47.252;8.696;2023-04-06T09:01:27;7.00;63.90
19588;DHT22;9940;47.252;8.696;2023-04-06T09:03:58;7.10;63.80
19588;DHT22;9940;47.252;8.696;2023-04-06T09:06:26;7.20;63.60
19588;DHT22;9940;47.252;8.696;2023-04-06T09:08:52;7.30;63.60
19588;DHT22;9940;47.252;8.696;2023-04-06T09:11:20;7.30;63.40
19588;DHT22;9940;47.252;8.696;2023-04-06T09:13:51;7.40;63.30
19588;DHT22;9940;47.252;8.696;2023-04-06T09:16:19;7.50;63.30
19588;DHT22;9940;47.252;8.696;2023-04-06T09:18:45;7.60;63.10
19588;DHT22;9940;47.252;8.696;2023-04-06T09:21:11;7.70;63.20
19588;DHT22;9940;47.252;8.696;2023-04-06T09:23:39;7.70;63.10
19588;DHT22;9940;47.252;8.696;2023-04-06T09:26:15;7.70;63.10
19588;DHT22;9940;47.252;8.696;2023-04-06T09:28:52;7.80;63.00
19588;DHT22;9940;47.252;8.696;2023-04-06T09:31:27;7.80;63.00
19588;DHT22;9940;47.252;8.696;2023-04-06T09:33:53;7.90;63.10
19588;DHT22;9940;47.252;8.696;2023-04-06T09:36:19;8.00;62.90
19588;DHT22;9940;47.252;8.696;2023-04-06T09:39:02;8.10;62.70
19588;DHT22;9940;47.252;8.696;2023-04-06T09:44:05;8.20;62.60
19588;DHT22;9940;47.252;8.696;2023-04-06T09:46:34;8.30;62.30
19588;DHT22;9940;47.252;8.696;2023-04-06T09:49:02;8.40;62.00
19588;DHT22;9940;47.252;8.696;2023-04-06T09:51:40;8.60;61.80
19588;DHT22;9940;47.252;8.696;2023-04-06T09:54:09;8.70;61.50
19588;DHT22;9940;47.252;8.696;2023-04-06T09:59:36;8.90;61.10
19588;DHT22;9940;47.252;8.696;2023-04-06T10:02:08;9.00;60.70
19588;DHT22;9940;47.252;8.696;2023-04-06T10:04:49;9.20;60.30
19588;DHT22;9940;47.252;8.696;2023-04-06T10:07:17;9.30;60.20
19588;DHT22;9940;47.252;8.696;2023-04-06T10:09:48;9.40;60.30
19588;DHT22;9940;47.252;8.696;2023-04-06T10:12:15;9.60;60.00
19588;DHT22;9940;47.252;8.696;2023-04-06T10:14:46;9.80;59.70
19588;DHT22;9940;47.252;8.696;2023-04-06T10:17:12;10.00;59.40
19588;DHT22;9940;47.252;8.696;2023-04-06T10:19:49;10.00;59.50
19588;DHT22;9940;47.252;8.696;2023-04-06T10:22:39;10.10;59.30
19588;DHT22;9940;47.252;8.696;2023-04-06T10:25:10;10.30;58.80
19588;DHT22;9940;47.252;8.696;2023-04-06T10:27:36;10.60;58.60
19588;DHT22;9940;47.252;8.696;2023-04-06T10:30:06;11.00;58.50
19588;DHT22;9940;47.252;8.696;2023-04-06T10:32:36;11.70;57.80
19588;DHT22;9940;47.252;8.696;2023-04-06T10:35:09;13.10;55.90
19588;DHT22;9940;47.252;8.696;2023-04-06T10:37:52;15.10;52.90
19588;DHT22;9940;47.252;8.696;2023-04-06T10:40:25;17.30;49.20
19588;DHT22;9940;47.252;8.696;2023-04-06T10:42:54;19.00;46.10
19588;DHT22;9940;47.252;8.696;2023-04-06T10:45:24;19.80;44.50
19588;DHT22;9940;47.252;8.696;2023-04-06T10:47:54;20.20;43.50
19588;DHT22;9940;47.252;8.696;2023-04-06T10:53:02;19.20;43.00
19588;DHT22;9940;47.252;8.696;2023-04-06T10:55:31;19.00;43.00
19588;DHT22;9940;47.252;8.696;2023-04-06T10:57:56;18.10;43.70
19588;DHT22;9940;47.252;8.696;2023-04-06T11:00:27;17.40;44.20
19588;DHT22;9940;47.252;8.696;2023-04-06T11:03:01;16.70;44.60
19588;DHT22;9940;47.252;8.696;2023-04-06T11:05:27;16.20;44.70
19588;DHT22;9940;47.252;8.696;2023-04-06T11:07:55;15.70;45.00
19588;DHT22;9940;47.252;8.696;2023-04-06T11:10:22;15.30;45.10
19588;DHT22;9940;47.252;8.696;2023-04-06T11:12:54;15.10;45.00
19588;DHT22;9940;47.252;8.696;2023-04-06T11:15:22;15.10;44.80
19588;DHT22;9940;47.252;8.696;2023-04-06T11:17:48;15.20;45.00
19588;DHT22;9940;47.252;8.696;2023-04-06T11:20:14;15.40;45.30
19588;DHT22;9940;47.252;8.696;2023-04-06T11:22:55;15.70;45.00
19588;DHT22;9940;47.252;8.696;2023-04-06T11:25:24;15.90;44.60
19588;DHT22;9940;47.252;8.696;2023-04-06T11:27:51;16.00;44.60
19588;DHT22;9940;47.252;8.696;2023-04-06T11:30:20;16.20;44.40
19588;DHT22;9940;47.252;8.696;2023-04-06T11:32:49;16.40;44.20
19588;DHT22;9940;47.252;8.696;2023-04-06T11:35:21;16.60;44.00
19588;DHT22;9940;47.252;8.696;2023-04-06T11:37:51;16.80;43.80
19588;DHT22;9940;47.252;8.696;2023-04-06T11:40:22;17.00;43.60
19588;DHT22;9940;47.252;8.696;2023-04-06T11:42:53;17.20;43.30
19588;DHT22;9940;47.252;8.696;2023-04-06T11:45:21;17.30;43.10
19588;DHT22;9940;47.252;8.696;2023-04-06T11:47:59;17.60;42.90
19588;DHT22;9940;47.252;8.696;2023-04-06T11:50:32;17.90;42.50
19588;DHT22;9940;47.252;8.696;2023-04-06T11:53:00;18.30;42.20
19588;DHT22;9940;47.252;8.696;2023-04-06T11:55:28;18.70;42.00
19588;DHT22;9940;47.252;8.696;2023-04-06T11:57:56;19.00;41.70
19588;DHT22;9940;47.252;8.696;2023-04-06T12:00:24;19.20;41.30
19588;DHT22;9940;47.252;8.696;2023-04-06T12:02:50;19.50;40.70
19588;DHT22;9940;47.252;8.696;2023-04-06T12:05:16;20.00;40.30
19588;DHT22;9940;47.252;8.696;2023-04-06T12:07:44;20.60;39.70
19588;DHT22;9940;47.252;8.696;2023-04-06T12:10:10;20.90;39.00
19588;DHT22;9940;47.252;8.696;2023-04-06T12:12:35;21.10;38.50
19588;DHT22;9940;47.252;8.696;2023-04-06T12:15:01;22.00;38.10
19588;DHT22;9940;47.252;8.696;2023-04-06T12:17:27;22.70;37.20
19588;DHT22;9940;47.252;8.696;2023-04-06T12:22:21;24.10;35.10
19588;DHT22;9940;47.252;8.696;2023-04-06T12:27:15;25.30;33.50
19588;DHT22;9940;47.252;8.696;2023-04-06T12:29:43;25.80;33.80
19588;DHT22;9940;47.252;8.696;2023-04-06T12:32:11;26.40;33.40
19588;DHT22;9940;47.252;8.696;2023-04-06T12:34:40;26.90;32.30
19588;DHT22;9940;47.252;8.696;2023-04-06T12:37:08;27.60;32.40
19588;DHT22;9940;47.252;8.696;2023-04-06T12:39:33;28.60;32.00
19588;DHT22;9940;47.252;8.696;2023-04-06T12:41:59;28.70;31.50
19588;DHT22;9940;47.252;8.696;2023-04-06T12:44:28;28.50;31.30
19588;DHT22;9940;47.252;8.696;2023-04-06T12:46:56;28.00;31.20
19588;DHT22;9940;47.252;8.696;2023-04-06T12:49:24;28.50;30.40
19588;DHT22;9940;47.252;8.696;2023-04-06T12:51:51;28.80;30.70
19588;DHT22;9940;47.252;8.696;2023-04-06T12:54:16;29.40;30.30
19588;DHT22;9940;47.252;8.696;2023-04-06T12:56:42;30.00;30.00
19588;DHT22;9940;47.252;8.696;2023-04-06T12:59:10;30.40;29.90
19588;DHT22;9940;47.252;8.696;2023-04-06T13:01:37;30.20;29.60
19588;DHT22;9940;47.252;8.696;2023-04-06T13:04:02;29.30;29.70
19588;DHT22;9940;47.252;8.696;2023-04-06T13:06:30;28.00;30.00
19588;DHT22;9940;47.252;8.696;2023-04-06T13:08:58;26.90;30.20
19588;DHT22;9940;47.252;8.696;2023-04-06T13:11:29;26.00;30.70
19588;DHT22;9940;47.252;8.696;2023-04-06T13:13:57;25.50;30.90
19588;DHT22;9940;47.252;8.696;2023-04-06T13:16:23;26.00;30.90
19588;DHT22;9940;47.252;8.696;2023-04-06T13:18:48;26.30;30.50
19588;DHT22;9940;47.252;8.696;2023-04-06T13:21:15;25.60;30.50
19588;DHT22;9940;47.252;8.696;2023-04-06T13:23:46;24.60;31.00
19588;DHT22;9940;47.252;8.696;2023-04-06T13:26:12;23.80;31.50
19588;DHT22;9940;47.252;8.696;2023-04-06T13:31:07;24.10;31.40
19588;DHT22;9940;47.252;8.696;2023-04-06T13:33:35;25.60;31.10
19588;DHT22;9940;47.252;8.696;2023-04-06T13:36:08;28.50;29.60
19588;DHT22;9940;47.252;8.696;2023-04-06T13:38:34;28.60;29.80
19588;DHT22;9940;47.252;8.696;2023-04-06T13:41:04;30.20;29.20
19588;DHT22;9940;47.252;8.696;2023-04-06T13:43:32;31.50;28.60
19588;DHT22;9940;47.252;8.696;2023-04-06T13:46:00;32.30;28.30
19588;DHT22;9940;47.252;8.696;2023-04-06T13:48:26;32.90;28.00
19588;DHT22;9940;47.252;8.696;2023-04-06T13:50:52;33.50;27.80
19588;DHT22;9940;47.252;8.696;2023-04-06T13:53:20;34.00;27.60
19588;DHT22;9940;47.252;8.696;2023-04-06T13:55:55;34.40;27.30
19588;DHT22;9940;47.252;8.696;2023-04-06T13:58:23;34.20;27.10
19588;DHT22;9940;47.252;8.696;2023-04-06T14:00:49;33.70;27.20
19588;DHT22;9940;47.252;8.696;2023-04-06T14:03:17;33.30;27.20
19588;DHT22;9940;47.252;8.696;2023-04-06T14:05:43;33.00;27.30
19588;DHT22;9940;47.252;8.696;2023-04-06T14:08:08;32.80;27.40
19588;DHT22;9940;47.252;8.696;2023-04-06T14:10:41;32.60;27.40
19588;DHT22;9940;47.252;8.696;2023-04-06T14:13:07;32.30;27.40
19588;DHT22;9940;47.252;8.696;2023-04-06T14:15:35;31.90;27.50
19588;DHT22;9940;47.252;8.696;2023-04-06T14:18:04;31.60;27.50
19588;DHT22;9940;47.252;8.696;2023-04-06T14:20:31;31.10;27.40
19588;DHT22;9940;47.252;8.696;2023-04-06T14:23:01;30.50;27.40
19588;DHT22;9940;47.252;8.696;2023-04-06T14:25:30;29.90;27.40
19588;DHT22;9940;47.252;8.696;2023-04-06T14:27:57;29.10;27.40
19588;DHT22;9940;47.252;8.696;2023-04-06T14:30:25;28.20;27.70
19588;DHT22;9940;47.252;8.696;2023-04-06T14:32:53;27.10;28.00
19588;DHT22;9940;47.252;8.696;2023-04-06T14:35:22;26.10;28.40
19588;DHT22;9940;47.252;8.696;2023-04-06T14:37:50;25.10;28.80
19588;DHT22;9940;47.252;8.696;2023-04-06T14:40:16;24.20;29.10
19588;DHT22;9940;47.252;8.696;2023-04-06T14:42:42;23.50;29.50
19588;DHT22;9940;47.252;8.696;2023-04-06T14:45:10;22.90;29.80
19588;DHT22;9940;47.252;8.696;2023-04-06T14:47:36;22.30;29.90
19588;DHT22;9940;47.252;8.696;2023-04-06T14:50:01;21.80;30.00
19588;DHT22;9940;47.252;8.696;2023-04-06T14:52:27;21.50;30.70
19588;DHT22;9940;47.252;8.696;2023-04-06T14:54:55;21.30;30.10
19588;DHT22;9940;47.252;8.696;2023-04-06T14:57:23;21.00;30.30
19588;DHT22;9940;47.252;8.696;2023-04-06T14:59:53;20.80;30.40
19588;DHT22;9940;47.252;8.696;2023-04-06T15:02:19;20.80;30.70
19588;DHT22;9940;47.252;8.696;2023-04-06T15:04:44;20.60;30.80
19588;DHT22;9940;47.252;8.696;2023-04-06T15:07:10;20.30;31.00
19588;DHT22;9940;47.252;8.696;2023-04-06T15:09:36;20.20;31.30
19588;DHT22;9940;47.252;8.696;2023-04-06T15:12:04;19.90;31.60
19588;DHT22;9940;47.252;8.696;2023-04-06T15:14:33;19.50;32.00
19588;DHT22;9940;47.252;8.696;2023-04-06T15:16:59;19.10;32.50
19588;DHT22;9940;47.252;8.696;2023-04-06T15:19:24;18.80;33.00
19588;DHT22;9940;47.252;8.696;2023-04-06T15:21:52;18.40;33.60
19588;DHT22;9940;47.252;8.696;2023-04-06T15:24:20;18.20;34.30
19588;DHT22;9940;47.252;8.696;2023-04-06T15:26:45;17.90;34.70
19588;DHT22;9940;47.252;8.696;2023-04-06T15:29:13;17.60;35.10
19588;DHT22;9940;47.252;8.696;2023-04-06T15:31:39;17.50;35.80
19588;DHT22;9940;47.252;8.696;2023-04-06T15:34:05;17.30;35.10
19588;DHT22;9940;47.252;8.696;2023-04-06T15:36:33;17.10;35.30
19588;DHT22;9940;47.252;8.696;2023-04-06T15:39:01;16.90;35.70
19588;DHT22;9940;47.252;8.696;2023-04-06T15:41:27;16.70;36.30
19588;DHT22;9940;47.252;8.696;2023-04-06T15:43:54;16.50;37.00
19588;DHT22;9940;47.252;8.696;2023-04-06T15:46:20;16.30;37.30
19588;DHT22;9940;47.252;8.696;2023-04-06T15:48:47;16.10;37.50
19588;DHT22;9940;47.252;8.696;2023-04-06T15:51:15;16.00;37.50
19588;DHT22;9940;47.252;8.696;2023-04-06T15:53:42;15.90;38.20
19588;DHT22;9940;47.252;8.696;2023-04-06T15:56:13;15.80;38.50
19588;DHT22;9940;47.252;8.696;2023-04-06T15:58:41;15.60;39.40
19588;DHT22;9940;47.252;8.696;2023-04-06T16:01:17;15.50;39.00
19588;DHT22;9940;47.252;8.696;2023-04-06T16:03:47;15.50;39.10
19588;DHT22;9940;47.252;8.696;2023-04-06T16:06:16;15.30;39.20
19588;DHT22;9940;47.252;8.696;2023-04-06T16:08:42;15.20;39.60
19588;DHT22;9940;47.252;8.696;2023-04-06T16:11:10;15.10;40.00